Ithaca, Nebraska
Current Conditions -  °F | °C
As of 6:35 AM on Sunday 21 Dec 2014 (Local Time) from KAHQ Reporting Station
Overcast Overcast  
Wind Chill: 31°   Ceiling: 800
Heat Index: 39°   Visibility: 7mi
Dew Point: 36°   Wind: 14mph
Humidity: 89%   Direction: 200°SSW
Pressure: 29.88"   Gusts: NA
Location:  41.16°N, 96.54°W
Report Text: KAHQ 211235Z AUTO 20012KT 7SM OVC008 04/02 A2988 RMK AO2 T00370020
Loading
Personal Weather Stations






























Interactive Weather Map New forecast layout! Learn more

10-Day Weather Forecast

Advertisements
Track Severe Weather on mobile